Time;durP1;ratioP1;P1;durP2;ratioP2;P2;SDS_P1;SDS_P2;PMS_P1;PMS_P2;Temp;Humidity;BMP_temperature;BMP_pressure;BME280_temperature;BME280_humidity;BME280_pressure;Samples;Min_cycle;Max_cycle;Signal;HPM_P1;HPM_P2
2021/12/04 00:00:38;;;;;;;5.68;3.83;;;;;;;3.48;76.15;94264.63;5113413;28;20028;-72
2021/12/04 00:03:03;;;;;;;;;;;;;;;3.58;75.33;94267.44;5112781;28;20027;-72
2021/12/04 00:05:29;;;;;;;7.40;5.22;;;;;;;3.45;75.99;94262.25;5111009;28;19976;-72
2021/12/04 00:07:54;;;;;;;5.57;3.78;;;;;;;3.48;75.27;94264.63;5094726;28;20494;-71
2021/12/04 00:10:26;;;;;;;4.22;3.33;;;;;;;3.29;75.30;94253.88;5111840;28;20032;-72
2021/12/04 00:12:52;;;;;;;4.95;3.47;;;;;;;3.31;74.40;94257.97;5111584;28;20051;-72
2021/12/04 00:15:17;;;;;;;6.30;3.65;;;;;;;3.50;73.42;94269.66;5094736;28;20466;-72
2021/12/04 00:17:43;;;;;;;6.15;3.95;;;;;;;3.36;75.17;94265.41;5130641;27;20031;-71
2021/12/04 00:20:09;;;;;;;5.78;4.10;;;;;;;3.13;76.82;94259.97;5114917;27;20027;-72
2021/12/04 00:22:34;;;;;;;4.97;3.90;;;;;;;3.17;77.29;94272.63;5114906;27;20122;-72
2021/12/04 00:25:00;;;;;;;4.85;2.92;;;;;;;3.10;75.57;94260.16;5097549;27;20026;-71
2021/12/04 00:27:25;;;;;;;5.00;3.20;;;;;;;2.96;76.65;94247.38;5133277;27;20530;-72
2021/12/04 00:29:51;;;;;;;5.80;3.95;;;;;;;3.00;76.15;94273.66;5133230;27;20035;-72
2021/12/04 00:32:27;;;;;;;4.65;3.33;;;;;;;2.98;77.18;94278.06;5110718;28;20030;-72
2021/12/04 00:35:14;;;;;;;3.90;2.85;;;;;;;2.93;76.96;94278.34;5112506;27;20495;-72
2021/12/04 00:43:14;;;;;;;4.25;2.83;;;;;;;2.80;76.14;94274.88;5111346;28;20490;-72
2021/12/04 00:51:21;;;;;;;5.30;3.90;;;;;;;2.61;77.25;94252.91;5112002;28;20038;-72
2021/12/04 00:53:47;;;;;;;5.25;4.00;;;;;;;2.83;77.16;94264.44;5093783;28;20413;-72
2021/12/04 00:56:13;;;;;;;5.55;4.68;;;;;;;2.72;77.13;94271.97;5110689;28;20030;-72
2021/12/04 00:58:38;;;;;;;9.07;5.25;;;;;;;2.57;79.53;94263.47;5132156;27;20033;-72
2021/12/04 01:01:04;;;;;;;6.00;4.63;;;;;;;2.61;78.17;94260.59;5131065;27;20035;-72
2021/12/04 01:03:29;;;;;;;10.45;5.93;;;;;;;2.68;77.88;94256.75;5092678;28;20152;-72
2021/12/04 01:05:55;;;;;;;5.95;4.50;;;;;;;2.63;78.40;94261.34;5093420;28;20524;-72
2021/12/04 01:08:20;;;;;;;6.65;5.25;;;;;;;2.65;77.38;94259.50;5093503;28;20505;-71
2021/12/04 01:10:46;;;;;;;7.75;6.28;;;;;;;2.49;78.26;94248.53;5110632;28;20034;-71
2021/12/04 01:13:11;;;;;;;6.55;4.80;;;;;;;2.59;77.02;94234.25;5104817;27;20028;-71
2021/12/04 01:15:42;;;;;;;8.50;5.15;;;;;;;2.66;77.65;94230.38;5090646;28;20047;-71
2021/12/04 01:18:08;;;;;;;8.50;6.28;;;;;;;2.68;77.46;94225.97;5093569;28;20402;-71
2021/12/04 01:20:33;;;;;;;6.85;5.00;;;;;;;2.59;77.28;94223.13;5111079;28;20036;-71
2021/12/04 01:22:59;;;;;;;6.88;5.50;;;;;;;2.65;77.71;94215.91;5093293;28;20482;-71
2021/12/04 01:25:24;;;;;;;7.93;5.90;;;;;;;2.65;79.16;94217.66;5076508;28;20058;-71
2021/12/04 01:27:50;;;;;;;8.52;6.05;;;;;;;2.72;78.70;94213.78;5114363;27;20223;-71
2021/12/04 01:30:15;;;;;;;7.53;5.70;;;;;;;2.78;78.53;94222.84;5113716;27;20409;-71
2021/12/04 01:32:41;;;;;;;6.43;4.85;;;;;;;2.82;77.46;94220.00;5130931;27;20527;-72
2021/12/04 01:35:06;;;;;;;5.97;4.75;;;;;;;2.69;77.93;94209.66;5113643;28;20028;-71
2021/12/04 01:37:32;;;;;;;5.53;4.25;;;;;;;2.55;77.78;94196.88;5130633;27;20038;-72
2021/12/04 01:39:57;;;;;;;5.85;4.32;;;;;;;2.72;77.52;94212.97;5130680;27;20027;-71
2021/12/04 01:42:23;;;;;;;7.00;5.68;;;;;;;2.57;76.70;94209.63;5131846;27;20027;-71
2021/12/04 01:44:49;;;;;;;6.25;5.00;;;;;;;2.61;77.31;94209.31;5130624;27;20046;-71
2021/12/04 01:47:16;;;;;;;7.15;4.90;;;;;;;2.74;78.36;94218.84;5107390;28;20053;-71
2021/12/04 01:49:41;;;;;;;5.70;4.85;;;;;;;2.67;79.23;94221.78;5098489;28;20028;-71
2021/12/04 01:52:07;;;;;;;6.72;4.78;;;;;;;2.53;78.08;94208.94;5111102;28;20035;-72
2021/12/04 01:54:34;;;;;;;6.43;5.15;;;;;;;2.48;78.32;94203.31;5098534;28;20389;-71
2021/12/04 01:56:59;;;;;;;7.57;5.38;;;;;;;2.64;78.95;94216.81;5113177;28;20030;-71
2021/12/04 01:59:27;;;;;;;7.28;5.60;;;;;;;2.77;78.30;94214.34;5096298;28;20055;-71
2021/12/04 02:01:53;;;;;;;5.82;4.70;;;;;;;2.83;77.90;94225.94;5112673;28;20470;-71
2021/12/04 02:04:18;;;;;;;6.05;4.80;;;;;;;2.89;77.44;94228.94;5112863;28;20031;-71
2021/12/04 02:06:44;;;;;;;5.80;4.78;;;;;;;2.93;76.95;94234.75;5113214;28;20023;-71
2021/12/04 02:09:09;;;;;;;5.57;4.40;;;;;;;3.02;75.37;94226.47;5130298;28;20414;-71
2021/12/04 02:11:34;;;;;;;5.45;4.15;;;;;;;3.08;74.91;94226.06;5109470;28;20043;-71
2021/12/04 02:14:00;;;;;;;4.85;3.67;;;;;;;3.14;73.89;94235.94;5111015;28;20032;-71
2021/12/04 02:16:25;;;;;;;5.72;3.97;;;;;;;3.19;73.62;94232.28;5075889;28;20030;-71
2021/12/04 02:18:51;;;;;;;4.80;3.58;;;;;;;3.22;74.48;94226.94;5092721;28;20393;-71
2021/12/04 02:21:16;;;;;;;5.50;4.15;;;;;;;3.17;72.92;94204.13;5110889;28;20015;-71
2021/12/04 02:23:42;;;;;;;6.53;4.45;;;;;;;3.07;73.84;94206.47;5109674;28;20046;-71
2021/12/04 02:26:07;;;;;;;5.97;4.57;;;;;;;3.12;74.15;94216.41;5092808;28;20111;-71
2021/12/04 02:28:32;;;;;;;6.00;4.38;;;;;;;3.12;73.63;94216.41;5096194;28;20039;-71
2021/12/04 02:30:58;;;;;;;6.30;5.10;;;;;;;3.02;74.46;94223.88;5096470;28;20669;-71
2021/12/04 02:33:23;;;;;;;6.03;4.57;;;;;;;2.95;74.03;94229.50;5114737;28;20102;-71
2021/12/04 02:35:53;;;;;;;9.70;4.85;;;;;;;2.93;75.25;94233.91;5130715;27;20040;-71
2021/12/04 02:38:23;;;;;;;5.65;4.63;;;;;;;2.87;75.30;94227.41;5113453;28;20252;-71
2021/12/04 02:40:49;;;;;;;6.55;4.60;;;;;;;2.83;75.52;94223.38;5113405;28;20050;-71
2021/12/04 02:43:15;;;;;;;6.93;5.20;;;;;;;2.92;74.89;94225.38;5113335;28;20110;-71
2021/12/04 02:45:42;;;;;;;5.90;4.15;;;;;;;2.97;73.82;94219.97;5114833;28;20042;-71
2021/12/04 02:48:08;;;;;;;4.75;4.05;;;;;;;3.01;74.36;94216.28;5096524;28;20642;-71
2021/12/04 02:50:33;;;;;;;5.85;4.53;;;;;;;3.02;72.96;94208.50;5096305;28;20038;-71
2021/12/04 02:52:59;;;;;;;6.15;4.95;;;;;;;3.08;73.96;94210.66;5130132;27;20035;-71
2021/12/04 02:55:24;;;;;;;5.93;4.57;;;;;;;3.14;73.75;94212.84;5118990;27;20027;-71
2021/12/04 02:57:50;;;;;;;5.75;4.68;;;;;;;3.10;74.67;94206.28;5133666;27;20031;-71
2021/12/04 03:00:18;;;;;;;10.98;7.72;;;;;;;2.89;73.31;94211.00;5116534;27;20469;-71
2021/12/04 03:02:43;;;;;;;8.18;6.40;;;;;;;2.76;75.12;94216.97;5099691;27;20019;-71
2021/12/04 03:05:10;;;;;;;9.57;6.57;;;;;;;2.61;75.64;94209.31;5098698;27;20528;-71
2021/12/04 03:07:36;;;;;;;8.45;7.13;;;;;;;2.61;75.42;94191.34;5099475;27;20035;-71
2021/12/04 03:10:01;;;;;;;8.20;7.10;;;;;;;2.57;75.59;94201.91;5133416;27;20035;-71
2021/12/04 03:12:27;;;;;;;10.13;6.88;;;;;;;2.43;76.49;94197.63;5132882;27;20042;-72
2021/12/04 03:14:53;;;;;;;7.45;5.72;;;;;;;2.38;75.65;94194.53;5116133;27;20035;-71
2021/12/04 03:17:20;;;;;;;7.47;6.10;;;;;;;2.29;76.68;94201.03;5099075;27;20121;-71
2021/12/04 03:19:46;;;;;;;7.43;5.78;;;;;;;2.30;75.86;94202.66;5097833;27;20027;-71
2021/12/04 03:22:12;;;;;;;7.45;6.10;;;;;;;2.26;76.95;94208.06;5133028;27;20057;-71
2021/12/04 03:24:41;;;;;;;9.05;6.93;;;;;;;2.21;77.68;94196.34;5134026;27;20034;-71
2021/12/04 03:27:06;;;;;;;10.95;7.78;;;;;;;2.26;77.84;94208.06;5130409;27;20031;-71
2021/12/04 03:29:35;;;;;;;9.60;7.45;;;;;;;2.17;77.79;94206.88;5095318;28;20027;-71
2021/12/04 03:32:35;;;;;;;8.50;6.47;;;;;;;2.02;76.51;94175.31;5095885;28;20024;-71
2021/12/04 03:42:47;;;;;;;9.00;6.70;;;;;;;2.15;77.06;94214.66;5132981;27;20408;-71
2021/12/04 03:45:12;;;;;;;9.18;6.55;;;;;;;2.06;78.53;94215.19;5095204;28;20031;-71
2021/12/04 03:47:42;;;;;;;9.40;6.88;;;;;;;2.07;76.73;94208.34;5111970;28;20481;-72
2021/12/04 03:50:07;;;;;;;11.23;6.55;;;;;;;1.97;78.11;94205.50;5095559;28;20035;-71
2021/12/04 03:52:33;;;;;;;10.10;7.25;;;;;;;2.11;78.04;94230.31;5096000;28;20028;-72
2021/12/04 03:54:58;;;;;;;11.60;8.18;;;;;;;2.00;78.32;94215.56;5095031;28;20032;-71
2021/12/04 03:57:24;;;;;;;11.25;8.43;;;;;;;1.95;78.85;94220.97;5111990;28;20390;-71
2021/12/04 03:59:49;;;;;;;12.65;9.57;;;;;;;1.99;78.52;94219.88;5111823;27;20390;-71
2021/12/04 04:02:16;;;;;;;11.68;8.35;;;;;;;2.09;78.96;94224.44;5115143;27;20416;-71
2021/12/04 04:04:41;;;;;;;11.05;9.73;;;;;;;2.20;78.02;94216.94;5132161;27;20541;-71
2021/12/04 04:07:07;;;;;;;10.38;8.00;;;;;;;2.33;77.31;94232.41;5114729;27;20076;-71
2021/12/04 04:09:32;;;;;;;8.20;6.20;;;;;;;2.52;75.32;94230.41;5132247;27;20066;-71
2021/12/04 04:11:58;;;;;;;8.60;6.82;;;;;;;2.38;75.24;94225.28;5132223;27;20033;-72
2021/12/04 04:14:24;;;;;;;9.90;7.25;;;;;;;2.65;75.38;94248.44;5130236;27;20076;-71
2021/12/04 04:16:50;;;;;;;8.60;6.60;;;;;;;2.57;76.36;94238.63;5115098;27;20069;-71
2021/12/04 04:19:16;;;;;;;7.97;5.88;;;;;;;2.54;75.30;94243.97;5131637;27;20035;-71
2021/12/04 04:21:42;;;;;;;7.95;6.07;;;;;;;2.56;74.84;94243.84;5114924;27;20038;-71
2021/12/04 04:24:08;;;;;;;9.07;6.90;;;;;;;2.59;74.85;94241.09;5097750;27;20035;-71
2021/12/04 04:26:34;;;;;;;12.18;9.13;;;;;;;2.46;74.64;94221.34;5127503;27;20027;-71
2021/12/04 04:28:59;;;;;;;10.25;7.78;;;;;;;2.65;74.48;94246.69;5115732;27;20035;-71
2021/12/04 04:31:25;;;;;;;12.00;7.57;;;;;;;2.62;75.34;94249.44;5119193;27;20421;-71
2021/12/04 04:33:50;;;;;;;9.25;6.70;;;;;;;2.60;75.70;94248.72;5131354;27;20039;-71
2021/12/04 04:39:05;;;;;;;13.60;10.82;;;;;;;2.68;74.96;94246.50;5132923;27;20022;-71
2021/12/04 05:11:45;;;;;;;8.30;5.72;;;;;;;2.55;74.57;94252.47;5116326;27;20104;-71
2021/12/04 05:14:18;;;;;;;8.95;5.68;;;;;;;2.53;74.57;94256.84;5125403;27;20491;-71
2021/12/04 05:17:01;;;;;;;6.75;5.25;;;;;;;2.45;74.24;94252.19;5100338;28;20039;-71
2021/12/04 05:19:37;;;;;;;8.10;5.68;;;;;;;2.50;75.37;94250.16;5092937;28;20039;-72
2021/12/04 05:22:03;;;;;;;10.88;7.00;;;;;;;2.62;73.76;94254.56;5120254;27;20068;-71
2021/12/04 05:24:28;;;;;;;8.90;5.80;;;;;;;2.63;73.46;94257.97;5106522;27;20040;-71
2021/12/04 05:26:53;;;;;;;9.07;6.65;;;;;;;2.56;74.68;94249.78;5106690;27;20240;-71
2021/12/04 05:29:19;;;;;;;8.15;6.40;;;;;;;2.49;75.11;94247.72;5126320;27;20027;-71
2021/12/04 05:31:44;;;;;;;8.23;5.82;;;;;;;2.48;75.77;94249.47;5129339;27;20412;-71
2021/12/04 05:34:10;;;;;;;6.80;5.20;;;;;;;2.45;74.67;94240.22;5128435;27;20031;-71
2021/12/04 05:36:35;;;;;;;7.78;5.38;;;;;;;2.56;74.84;94238.72;5129285;27;20039;-71
2021/12/04 05:39:01;;;;;;;8.15;5.65;;;;;;;2.55;73.45;94243.03;5127379;27;20038;-71
2021/12/04 05:41:26;;;;;;;8.07;5.68;;;;;;;2.41;75.73;94245.59;5092357;28;20027;-71
2021/12/04 05:43:52;;;;;;;8.52;6.28;;;;;;;2.37;75.55;94233.91;5108743;28;20038;-71
2021/12/04 05:46:20;;;;;;;8.70;5.90;;;;;;;1.94;76.46;94236.41;5092164;28;20110;-71
2021/12/04 05:51:23;;;;;;;9.02;5.97;;;;;;;2.07;76.62;94251.91;5091814;28;20107;-71
2021/12/04 05:56:14;;;;;;;11.30;6.95;;;;;;;1.91;78.88;94251.97;5092477;28;20061;-71
2021/12/04 05:58:40;;;;;;;9.65;7.03;;;;;;;1.92;79.63;94238.22;5091636;28;20446;-71
2021/12/04 06:01:06;;;;;;;9.15;7.07;;;;;;;2.06;78.12;94251.06;5125452;27;20023;-71
2021/12/04 06:03:31;;;;;;;9.38;6.65;;;;;;;2.15;78.16;94249.72;5116095;27;20027;-71
2021/12/04 06:05:57;;;;;;;11.25;7.05;;;;;;;2.26;76.90;94251.63;5096677;27;20043;-71
2021/12/04 06:08:22;;;;;;;12.05;6.93;;;;;;;2.35;76.70;94269.88;5099805;27;20033;-72
2021/12/04 06:10:48;;;;;;;11.95;9.55;;;;;;;2.40;76.67;94262.72;5116884;27;20032;-71
2021/12/04 06:13:13;;;;;;;13.07;8.38;;;;;;;2.34;77.13;94254.56;5134268;27;20031;-71
2021/12/04 06:15:39;;;;;;;10.10;7.40;;;;;;;2.26;76.56;94270.41;5116817;27;20031;-71
2021/12/04 06:18:04;;;;;;;10.52;7.68;;;;;;;2.29;77.57;94271.97;5099448;27;20416;-73
2021/12/04 06:23:14;;;;;;;10.93;6.95;;;;;;;2.29;75.66;94277.09;5132776;27;20073;-71
2021/12/04 06:25:39;;;;;;;9.18;6.63;;;;;;;2.32;75.36;94279.50;5116675;27;20055;-71
2021/12/04 06:28:05;;;;;;;9.65;7.03;;;;;;;2.20;76.00;94284.41;5115487;27;20545;-71
2021/12/04 06:30:38;;;;;;;11.05;7.45;;;;;;;2.24;76.09;94280.75;5116672;27;20041;-71
2021/12/04 06:33:04;;;;;;;11.23;6.90;;;;;;;2.10;76.17;94273.03;5134582;27;20027;-71
2021/12/04 06:35:31;;;;;;;8.52;6.75;;;;;;;2.06;76.67;94276.69;5116162;27;20040;-71
2021/12/04 06:37:57;;;;;;;9.70;6.25;;;;;;;2.05;76.99;94280.16;5130951;27;20428;-71
2021/12/04 06:40:26;;;;;;;8.90;6.38;;;;;;;2.10;77.01;94283.28;5116228;27;20031;-71
2021/12/04 06:42:51;;;;;;;8.82;6.15;;;;;;;2.13;76.63;94288.25;5132517;27;20039;-71
2021/12/04 06:45:17;;;;;;;10.02;5.97;;;;;;;2.17;76.77;94294.84;5116299;27;20035;-71
2021/12/04 06:47:50;;;;;;;9.82;6.03;;;;;;;2.14;76.99;94289.88;5115612;27;20103;-71
2021/12/04 06:50:24;;;;;;;10.00;6.35;;;;;;;2.06;77.40;94292.06;5132966;27;20045;-71
2021/12/04 06:52:50;;;;;;;9.98;6.85;;;;;;;2.11;77.22;94290.06;5132806;27;20070;-71
2021/12/04 06:55:17;;;;;;;8.15;6.35;;;;;;;2.15;77.44;94290.72;5130182;27;20084;-71
2021/12/04 06:57:44;;;;;;;9.23;6.82;;;;;;;2.23;77.75;94304.75;5132739;27;20016;-71
2021/12/04 07:00:10;;;;;;;10.85;8.13;;;;;;;2.19;78.13;94297.31;5113158;27;20085;-71
2021/12/04 07:02:36;;;;;;;10.45;7.18;;;;;;;2.23;77.09;94289.38;5085999;27;20444;-72
2021/12/04 07:05:01;;;;;;;11.15;7.97;;;;;;;2.35;77.74;94299.81;5114764;28;20055;-72
2021/12/04 07:07:27;;;;;;;10.80;7.50;;;;;;;2.51;77.90;94305.69;5129756;28;20566;-71
2021/12/04 07:09:52;;;;;;;12.00;7.80;;;;;;;2.38;78.15;94282.50;5125433;28;20040;-72
2021/12/04 07:12:18;;;;;;;11.45;8.75;;;;;;;2.63;77.34;94306.69;5130751;27;20023;-71
2021/12/04 07:14:43;;;;;;;12.43;8.45;;;;;;;2.67;76.03;94301.28;5125166;28;20087;-73
2021/12/04 07:17:09;;;;;;;11.98;8.85;;;;;;;2.68;75.57;94312.38;5113883;28;20038;-76
2021/12/04 07:19:35;;;;;;;13.00;9.90;;;;;;;2.73;76.26;94319.78;5131598;28;20027;-73
2021/12/04 07:22:02;;;;;;;12.95;8.80;;;;;;;2.74;74.52;94329.94;5111822;28;20214;-73
2021/12/04 07:24:29;;;;;;;12.50;8.73;;;;;;;2.70;75.01;94328.47;5093729;28;20057;-73
2021/12/04 07:26:55;;;;;;;16.23;9.65;;;;;;;2.71;75.23;94326.75;5108212;28;20034;-74
2021/12/04 07:29:20;;;;;;;12.07;9.02;;;;;;;2.68;75.08;94323.44;5110641;28;20032;-73
2021/12/04 07:31:45;;;;;;;12.20;9.15;;;;;;;2.67;74.71;94329.50;5110767;28;20477;-72
2021/12/04 07:34:11;;;;;;;14.35;9.52;;;;;;;2.67;76.48;94323.53;5131261;28;20096;-73
2021/12/04 07:36:36;;;;;;;12.68;8.85;;;;;;;2.59;74.92;94308.63;5132095;27;20027;-73
2021/12/04 07:39:02;;;;;;;13.85;10.00;;;;;;;2.71;75.82;94309.63;5102388;28;20058;-73
2021/12/04 07:41:28;;;;;;;16.27;10.48;;;;;;;2.69;73.95;94307.13;5076545;28;20031;-74
2021/12/04 07:43:53;;;;;;;14.82;10.93;;;;;;;2.68;75.00;94299.53;5115809;28;20034;-73
2021/12/04 07:46:19;;;;;;;13.82;10.48;;;;;;;2.81;75.42;94299.63;5130629;28;20023;-72
2021/12/04 07:48:44;;;;;;;15.82;10.90;;;;;;;2.86;76.10;94297.59;5130970;28;20545;-73
2021/12/04 07:51:10;;;;;;;24.90;14.73;;;;;;;3.04;73.91;94287.97;5118464;27;20024;-73
2021/12/04 07:53:36;;;;;;;20.25;12.60;;;;;;;3.05;74.12;94272.47;5093210;28;20717;-73
2021/12/04 07:56:01;;;;;;;17.13;10.82;;;;;;;2.90;73.30;94263.16;5102308;28;20119;-73
2021/12/04 07:58:27;;;;;;;14.20;9.93;;;;;;;3.02;75.04;94262.38;5092524;28;20016;-73
2021/12/04 08:00:52;;;;;;;13.48;10.02;;;;;;;3.11;75.45;94258.41;5113724;28;20028;-73
2021/12/04 08:03:18;;;;;;;13.52;9.75;;;;;;;3.20;75.01;94259.59;5093007;28;20027;-74
2021/12/04 08:05:43;;;;;;;13.80;9.20;;;;;;;3.09;74.92;94235.44;5085796;27;1108334;-73
2021/12/04 08:08:09;;;;;;;12.88;9.48;;;;;;;3.33;74.09;94245.88;5131448;27;20300;-73
2021/12/04 08:10:35;;;;;;;13.38;9.35;;;;;;;3.51;73.60;94246.47;5094055;27;20031;-74
2021/12/04 08:13:02;;;;;;;11.20;8.57;;;;;;;3.54;71.68;94240.31;5110863;28;20405;-71
2021/12/04 08:15:28;;;;;;;12.77;8.98;;;;;;;3.42;72.12;94244.47;5110046;27;20057;-72
2021/12/04 08:17:54;;;;;;;11.65;9.40;;;;;;;3.45;72.40;94238.31;5093000;28;20028;-74
2021/12/04 08:20:20;;;;;;;54.88;25.38;;;;;;;3.65;72.50;94245.59;5094526;27;20035;-72
2021/12/04 08:22:45;;;;;;;33.85;20.85;;;;;;;3.87;71.19;94244.97;5115103;27;20053;-73
2021/12/04 08:25:12;;;;;;;25.45;15.48;;;;;;;4.05;70.69;94249.84;5113445;27;20479;-73
2021/12/04 08:27:38;;;;;;;20.45;12.45;;;;;;;4.36;69.74;94240.91;5130332;27;20513;-74
2021/12/04 08:30:09;;;;;;;15.60;10.27;;;;;;;4.74;69.07;94246.03;5107124;28;20028;-73
2021/12/04 08:32:34;;;;;;;28.70;16.33;;;;;;;4.90;68.83;94236.31;5091252;28;20464;-74
2021/12/04 08:35:02;;;;;;;46.33;21.85;;;;;;;4.88;68.80;94232.19;5080038;28;20100;-74
2021/12/04 08:37:27;;;;;;;22.65;14.18;;;;;;;4.77;69.71;94239.84;5111389;28;20050;-73
2021/12/04 08:39:52;;;;;;;18.00;11.23;;;;;;;4.70;69.36;94250.53;5093343;28;20486;-74
2021/12/04 08:42:19;;;;;;;32.88;20.05;;;;;;;4.79;69.94;94258.56;5111070;28;20031;-73
2021/12/04 08:44:45;;;;;;;26.00;17.08;;;;;;;4.88;69.17;94245.06;5110456;28;20511;-74
2021/12/04 08:47:11;;;;;;;20.42;14.75;;;;;;;4.85;67.46;94247.84;5092954;28;20463;-74
2021/12/04 08:49:36;;;;;;;26.10;14.93;;;;;;;4.79;68.47;94227.66;5090602;28;20027;-73
2021/12/04 08:52:04;;;;;;;19.52;13.32;;;;;;;4.78;68.36;94228.59;5110054;27;20490;-73
2021/12/04 08:54:32;;;;;;;16.60;11.77;;;;;;;4.77;68.68;94232.94;5093521;28;20038;-74
2021/12/04 08:56:58;;;;;;;13.30;10.02;;;;;;;4.81;67.98;94218.91;5110807;28;20032;-73
2021/12/04 08:59:23;;;;;;;15.50;11.38;;;;;;;4.82;67.30;94223.16;5093257;27;20038;-74
2021/12/04 09:01:49;;;;;;;16.88;11.95;;;;;;;4.77;66.61;94214.94;5109950;28;20039;-74
2021/12/04 09:04:26;;;;;;;22.10;15.75;;;;;;;4.78;69.18;94220.88;5098091;27;20031;-75
2021/12/04 09:06:52;;;;;;;26.67;18.13;;;;;;;4.77;69.21;94220.06;5107277;27;20047;-74
2021/12/04 09:09:17;;;;;;;19.58;14.98;;;;;;;4.83;68.20;94216.25;5076038;28;20116;-74
2021/12/04 09:11:51;;;;;;;15.65;11.35;;;;;;;4.85;67.20;94211.81;5104126;27;20481;-75
2021/12/04 09:14:18;;;;;;;17.48;12.15;;;;;;;4.85;66.63;94216.97;5113079;27;20473;-74
2021/12/04 09:16:44;;;;;;;32.72;20.30;;;;;;;4.86;67.43;94219.41;5131588;27;20480;-75
2021/12/04 09:19:09;;;;;;;30.13;19.88;;;;;;;4.81;67.23;94221.50;5130296;27;20037;-74
2021/12/04 09:21:37;;;;;;;68.97;42.38;;;;;;;4.84;68.08;94210.16;5130928;27;20031;-74
2021/12/04 09:24:14;;;;;;;42.70;26.55;;;;;;;4.91;67.58;94219.94;5132164;27;20106;-74
2021/12/04 10:02:03;;;;;;;21.45;15.68;;;;;;;4.55;67.34;94233.59;5068088;28;20041;-73
2021/12/04 10:34:34;;;;;;;19.13;14.90;;;;;;;4.74;67.54;94212.56;5090666;28;20035;-73
2021/12/04 10:37:07;;;;;;;17.42;12.63;;;;;;;4.80;67.32;94204.41;5109590;28;20413;-74
2021/12/04 10:39:33;;;;;;;19.02;12.90;;;;;;;4.73;68.75;94192.06;5092561;28;20053;-73
2021/12/04 10:42:02;;;;;;;24.65;17.65;;;;;;;4.80;67.75;94180.44;5092571;28;20031;-74
2021/12/04 10:44:27;;;;;;;18.50;13.48;;;;;;;4.92;66.81;94185.53;5109561;28;20039;-74
2021/12/04 10:46:53;;;;;;;16.33;11.95;;;;;;;4.97;68.06;94190.34;5109449;28;20040;-74
2021/12/04 10:49:43;;;;;;;25.27;17.17;;;;;;;5.10;66.75;94196.28;5113639;28;20023;-73
2021/12/04 10:52:26;;;;;;;23.88;16.20;;;;;;;5.21;66.30;94198.09;5114470;28;20042;-73
2021/12/04 10:55:10;;;;;;;21.92;15.70;;;;;;;5.23;66.64;94203.13;5113318;28;20035;-74
2021/12/04 11:23:43;;;;;;;23.60;15.75;;;;;;;4.81;68.63;94188.03;5112812;28;20038;-73
2021/12/04 11:37:09;;;;;;;28.55;18.77;;;;;;;4.89;67.47;94183.16;5098178;28;20435;-73
2021/12/04 11:39:52;;;;;;;25.17;16.77;;;;;;;4.88;67.79;94186.69;5113795;27;20019;-72
2021/12/04 11:44:53;;;;;;;18.92;13.35;;;;;;;5.00;67.85;94173.88;5112462;28;20051;-72
2021/12/04 11:47:18;;;;;;;30.70;20.38;;;;;;;5.08;67.57;94182.69;5096389;28;20028;-72
2021/12/04 11:49:44;;;;;;;23.92;15.10;;;;;;;5.14;66.49;94189.16;5112062;28;20100;-72
2021/12/04 11:52:15;;;;;;;24.90;15.88;;;;;;;5.16;66.81;94187.31;5113392;28;20502;-72
2021/12/04 11:54:48;;;;;;;18.98;12.23;;;;;;;4.97;67.79;94161.22;5095104;28;20027;-72
2021/12/04 11:57:15;;;;;;;18.67;13.38;;;;;;;5.04;68.83;94176.13;5111974;28;20023;-73
2021/12/04 11:59:42;;;;;;;16.52;11.13;;;;;;;5.09;67.25;94188.66;5110714;28;20030;-72
2021/12/04 12:02:09;;;;;;;18.08;11.57;;;;;;;5.15;67.13;94193.38;5111810;28;20028;-72
2021/12/04 12:04:53;;;;;;;23.42;19.02;;;;;;;5.09;67.79;94184.31;5111573;28;20051;-73
2021/12/04 12:07:26;;;;;;;23.67;16.80;;;;;;;5.11;67.74;94194.53;5111696;28;20041;-72
2021/12/04 12:10:11;;;;;;;27.58;19.63;;;;;;;5.09;67.96;94198.97;5111840;28;20038;-72
2021/12/04 12:12:39;;;;;;;25.08;18.38;;;;;;;5.06;68.28;94194.03;5095568;28;20565;-72
2021/12/04 12:15:30;;;;;;;25.20;16.58;;;;;;;5.04;68.82;94195.88;5094650;28;20478;-72
2021/12/04 12:18:08;;;;;;;17.13;10.93;;;;;;;4.92;67.68;94187.28;5111577;28;20024;-73
2021/12/04 12:20:47;;;;;;;18.58;11.20;;;;;;;4.86;68.04;94182.56;5112629;28;20027;-72
2021/12/04 12:23:15;;;;;;;16.45;10.68;;;;;;;4.83;67.79;94180.22;5111600;28;20057;-73
2021/12/04 12:36:25;;;;;;;16.98;11.15;;;;;;;5.02;68.28;94196.00;5111557;28;20066;-73
2021/12/04 12:39:06;;;;;;;21.95;14.32;;;;;;;5.10;67.09;94187.75;5094135;28;20027;-73
2021/12/04 12:41:32;;;;;;;19.60;13.80;;;;;;;5.09;67.29;94198.97;5112394;28;20060;-73
2021/12/04 12:44:17;;;;;;;21.17;13.88;;;;;;;5.17;66.79;94194.09;5111092;28;20032;-73
2021/12/04 12:46:47;;;;;;;20.10;13.07;;;;;;;5.18;66.55;94184.59;5112170;28;20031;-73
2021/12/04 12:49:45;;;;;;;22.63;14.18;;;;;;;5.02;68.43;94184.91;5110904;28;20059;-73
2021/12/04 12:52:14;;;;;;;27.08;18.98;;;;;;;5.08;67.53;94181.88;5107894;28;20039;-73
2021/12/04 12:54:55;;;;;;;23.50;15.02;;;;;;;5.14;67.69;94176.28;5112332;28;20035;-72
2021/12/04 12:57:24;;;;;;;24.88;17.85;;;;;;;5.05;68.57;94185.50;5112150;28;20077;-72
2021/12/04 13:14:20;;;;;;;26.73;16.95;;;;;;;5.02;67.97;94178.00;5131339;27;20046;-73
2021/12/04 13:17:09;;;;;;;20.58;14.25;;;;;;;5.18;68.70;94211.16;5131082;27;20031;-73
2021/12/04 13:19:37;;;;;;;27.13;16.83;;;;;;;5.19;68.20;94199.97;5125846;27;20031;-73
2021/12/04 13:22:11;;;;;;;31.38;21.10;;;;;;;5.15;68.62;94208.81;5113995;27;20517;-74
2021/12/04 13:24:38;;;;;;;29.80;21.52;;;;;;;5.20;68.29;94209.31;5114547;27;20042;-73
2021/12/04 13:29:39;;;;;;;25.65;16.65;;;;;;;5.03;69.06;94204.56;5132279;27;20027;-73
2021/12/04 13:32:05;;;;;;;30.50;17.15;;;;;;;4.98;69.35;94206.63;5130755;27;20427;-74
2021/12/04 13:34:31;;;;;;;32.08;17.77;;;;;;;4.96;68.75;94196.44;5113747;27;20115;-73
2021/12/04 13:36:58;;;;;;;34.70;18.35;;;;;;;4.84;68.94;94187.81;5113686;28;20066;-73
2021/12/04 13:39:23;;;;;;;30.80;18.45;;;;;;;4.79;69.20;94195.06;5130718;27;20015;-73
2021/12/04 13:41:49;;;;;;;35.13;19.55;;;;;;;4.83;69.31;94177.66;5113722;27;20413;-74
2021/12/04 13:44:17;;;;;;;37.53;20.17;;;;;;;4.75;70.16;94173.03;5130578;27;20110;-73
2021/12/04 13:46:53;;;;;;;31.02;17.55;;;;;;;4.86;70.61;94188.53;5130513;27;20118;-73
2021/12/04 13:49:26;;;;;;;27.52;16.42;;;;;;;4.91;70.36;94198.53;5113759;28;20031;-73
2021/12/04 13:51:56;;;;;;;26.33;16.48;;;;;;;4.98;69.61;94192.00;5130632;28;20034;-73
2021/12/04 13:54:23;;;;;;;32.60;22.30;;;;;;;4.95;68.97;94175.94;5113544;28;20486;-73
2021/12/04 13:56:48;;;;;;;30.23;18.17;;;;;;;5.02;70.13;94190.03;5131684;27;20039;-74
2021/12/04 13:59:14;;;;;;;35.17;21.45;;;;;;;5.07;69.25;94180.22;5130495;28;20031;-74
2021/12/04 14:01:42;;;;;;;56.97;34.83;;;;;;;5.02;68.96;94169.44;5113364;28;20031;-72
2021/12/04 14:04:11;;;;;;;45.67;26.23;;;;;;;4.93;69.75;94186.34;5113343;28;20023;-73
2021/12/04 14:06:36;;;;;;;38.25;23.83;;;;;;;4.88;70.63;94184.13;5130453;28;20059;-73
2021/12/04 14:09:06;;;;;;;31.17;20.95;;;;;;;4.89;71.28;94183.16;5131824;27;20484;-74
2021/12/04 14:11:39;;;;;;;30.02;18.92;;;;;;;4.80;71.68;94172.72;5130354;28;20417;-74
2021/12/04 14:14:21;;;;;;;28.75;18.45;;;;;;;4.96;70.87;94182.72;5130372;28;20032;-72
2021/12/04 14:16:50;;;;;;;28.90;18.02;;;;;;;4.92;72.29;94182.94;5131616;27;20041;-72
2021/12/04 14:19:22;;;;;;;26.45;17.92;;;;;;;5.00;71.82;94179.03;5113564;28;20110;-72
2021/12/04 14:22:04;;;;;;;30.95;19.00;;;;;;;4.96;71.67;94172.44;5130200;27;20114;-72
2021/12/04 14:24:34;;;;;;;30.52;18.05;;;;;;;4.90;71.19;94182.25;5133695;27;20489;-73
2021/12/04 14:27:01;;;;;;;27.25;18.33;;;;;;;4.87;71.53;94179.88;5134175;27;20110;-74
2021/12/04 14:29:34;;;;;;;25.92;17.35;;;;;;;4.86;71.83;94172.28;5135628;27;20529;-73
2021/12/04 14:31:59;;;;;;;27.15;16.42;;;;;;;4.86;72.21;94174.84;5134211;27;20034;-73
2021/12/04 14:34:26;;;;;;;26.17;17.00;;;;;;;4.82;73.28;94179.41;5134104;27;20035;-73
2021/12/04 14:37:02;;;;;;;24.90;16.13;;;;;;;4.87;72.46;94182.44;5117097;27;20042;-73
2021/12/04 14:39:28;;;;;;;26.65;16.23;;;;;;;4.82;72.00;94171.69;5116813;27;20569;-73
2021/12/04 14:41:53;;;;;;;26.58;16.77;;;;;;;4.74;72.58;94163.69;5116991;27;20023;-73
2021/12/04 14:44:18;;;;;;;25.27;16.10;;;;;;;4.80;72.37;94173.53;5133877;27;20027;-73
2021/12/04 14:46:44;;;;;;;25.35;16.00;;;;;;;4.84;71.96;94187.81;5116781;27;20027;-73
2021/12/04 14:49:10;;;;;;;25.80;16.42;;;;;;;4.72;72.02;94164.72;5133757;27;20034;-73